Time;durP1;ratioP1;P1;durP2;ratioP2;P2;SDS_P1;SDS_P2;PMS_P1;PMS_P2;Temp;Humidity;BMP_temperature;BMP_pressure;BME280_temperature;BME280_humidity;BME280_pressure;Samples;Min_cycle;Max_cycle;Signal;HPM_P1;HPM_P2
2024/01/31 00:01:42;;;;;;;13.68;8.90;;;;;;;;;;5101777;28;20601;-68
2024/01/31 00:04:07;;;;;;;15.80;10.70;;;;;;;;;;5114221;28;20030;-68
2024/01/31 00:06:33;;;;;;;14.40;9.52;;;;;;;;;;5105829;28;20375;-68
2024/01/31 00:09:00;;;;;;;12.98;8.77;;;;;;;;;;5109034;28;20118;-68
2024/01/31 00:11:26;;;;;;;14.30;9.77;;;;;;;;;;5113873;28;20046;-68
2024/01/31 00:13:51;;;;;;;17.30;11.75;;;;;;;;;;5112548;28;20032;-68
2024/01/31 00:16:17;;;;;;;19.85;10.73;;;;;;;;;;5114174;28;20066;-68
2024/01/31 00:18:42;;;;;;;14.82;10.18;;;;;;;;;;5113472;28;20063;-68
2024/01/31 00:21:07;;;;;;;14.10;10.23;;;;;;;;;;5114379;28;20024;-68
2024/01/31 00:23:32;;;;;;;15.55;10.55;;;;;;;;;;5110397;28;20277;-68
2024/01/31 00:25:58;;;;;;;20.10;11.85;;;;;;;;;;5111248;28;20028;-68
2024/01/31 00:28:23;;;;;;;15.25;10.93;;;;;;;;;;5101572;28;20016;-68
2024/01/31 00:30:48;;;;;;;18.33;11.05;;;;;;;;;;5094134;28;20605;-68
2024/01/31 00:33:14;;;;;;;16.43;11.07;;;;;;;;;;5109878;28;20020;-68
2024/01/31 00:35:39;;;;;;;17.98;10.80;;;;;;;;;;5114069;28;20605;-68
2024/01/31 00:38:04;;;;;;;16.52;11.18;;;;;;;;;;5110598;28;20124;-68
2024/01/31 00:40:29;;;;;;;18.92;12.30;;;;;;;;;;5114381;28;20035;-68
2024/01/31 00:42:55;;;;;;;18.08;11.63;;;;;;;;;;5108332;28;20373;-68
2024/01/31 00:45:20;;;;;;;19.75;10.93;;;;;;;;;;5107063;28;20028;-67
2024/01/31 00:47:45;;;;;;;17.27;11.20;;;;;;;;;;5104917;28;20024;-67
2024/01/31 00:50:12;;;;;;;21.90;12.10;;;;;;;;;;5111048;28;20029;-68
2024/01/31 00:52:37;;;;;;;20.88;12.30;;;;;;;;;;5105063;28;20028;-68
2024/01/31 00:55:02;;;;;;;23.20;12.68;;;;;;;;;;5104487;28;20496;-68
2024/01/31 00:57:28;;;;;;;18.00;12.45;;;;;;;;;;5103483;28;20019;-68
2024/01/31 00:59:53;;;;;;;18.93;12.63;;;;;;;;;;5097406;28;20385;-68
2024/01/31 01:02:18;;;;;;;19.52;12.38;;;;;;;;;;5098401;28;20699;-68
2024/01/31 01:04:43;;;;;;;19.03;12.53;;;;;;;;;;5094012;28;20023;-68
2024/01/31 01:07:08;;;;;;;19.97;12.70;;;;;;;;;;5093792;28;20278;-68
2024/01/31 01:09:34;;;;;;;21.67;13.70;;;;;;;;;;5094125;28;20292;-68
2024/01/31 01:11:59;;;;;;;19.10;12.55;;;;;;;;;;5096793;28;20301;-68
2024/01/31 01:14:24;;;;;;;21.80;13.23;;;;;;;;;;5090714;28;20030;-68
2024/01/31 01:16:50;;;;;;;16.80;11.68;;;;;;;;;;5100762;28;20034;-68
2024/01/31 01:19:15;;;;;;;23.83;13.57;;;;;;;;;;5100343;28;20111;-68
2024/01/31 01:21:40;;;;;;;22.17;13.40;;;;;;;;;;5100232;28;20368;-69
2024/01/31 01:24:05;;;;;;;21.77;14.17;;;;;;;;;;5099169;28;20380;-68
2024/01/31 01:26:31;;;;;;;22.42;12.57;;;;;;;;;;5098420;28;20277;-67
2024/01/31 01:28:56;;;;;;;22.97;13.73;;;;;;;;;;5100517;28;20020;-68
2024/01/31 01:31:21;;;;;;;21.07;13.50;;;;;;;;;;5097192;28;20290;-69
2024/01/31 01:33:46;;;;;;;20.13;12.75;;;;;;;;;;5100713;28;20289;-68
2024/01/31 01:36:12;;;;;;;22.13;14.43;;;;;;;;;;5097034;28;20016;-67
2024/01/31 01:38:37;;;;;;;23.92;14.85;;;;;;;;;;5100569;28;20042;-67
2024/01/31 01:41:03;;;;;;;19.38;13.27;;;;;;;;;;5095529;28;20020;-69
2024/01/31 01:43:28;;;;;;;24.25;14.88;;;;;;;;;;5096980;28;20028;-68
2024/01/31 01:46:00;;;;;;;22.02;14.15;;;;;;;;;;5093532;28;20028;-68
2024/01/31 01:48:25;;;;;;;24.02;14.65;;;;;;;;;;5094957;28;20066;-68
2024/01/31 01:50:50;;;;;;;26.92;14.15;;;;;;;;;;5111855;28;20051;-68
2024/01/31 01:53:15;;;;;;;26.27;14.15;;;;;;;;;;5095504;28;20074;-68
2024/01/31 01:55:41;;;;;;;23.60;13.73;;;;;;;;;;5111123;28;20664;-68
2024/01/31 01:58:06;;;;;;;22.85;13.65;;;;;;;;;;5093188;28;20070;-68
2024/01/31 02:00:33;;;;;;;25.58;14.15;;;;;;;;;;5092966;28;20034;-67
2024/01/31 02:02:59;;;;;;;22.80;13.95;;;;;;;;;;5102578;28;20020;-68
2024/01/31 02:05:25;;;;;;;24.48;14.40;;;;;;;;;;5092787;28;20020;-68
2024/01/31 02:07:51;;;;;;;23.05;14.13;;;;;;;;;;5092574;28;20480;-68
2024/01/31 02:10:16;;;;;;;23.08;14.07;;;;;;;;;;5105524;28;20099;-68
2024/01/31 02:12:41;;;;;;;21.52;15.02;;;;;;;;;;5098736;28;20545;-68
2024/01/31 02:15:07;;;;;;;21.37;13.93;;;;;;;;;;5112859;28;20062;-68
2024/01/31 02:17:33;;;;;;;29.15;14.77;;;;;;;;;;5108494;28;20280;-68
2024/01/31 02:19:58;;;;;;;21.80;13.55;;;;;;;;;;5110656;28;20015;-69
2024/01/31 02:22:23;;;;;;;20.27;13.45;;;;;;;;;;5108206;28;20130;-68
2024/01/31 02:24:49;;;;;;;27.33;14.93;;;;;;;;;;5112841;28;20031;-68
2024/01/31 02:27:14;;;;;;;24.25;13.63;;;;;;;;;;5109472;28;20028;-68
2024/01/31 02:29:39;;;;;;;23.85;13.88;;;;;;;;;;5112449;28;20019;-68
2024/01/31 02:32:05;;;;;;;21.63;13.88;;;;;;;;;;5100160;28;20062;-68
2024/01/31 02:34:30;;;;;;;23.40;13.50;;;;;;;;;;5103841;28;20015;-69
2024/01/31 02:36:55;;;;;;;24.50;13.70;;;;;;;;;;5096592;28;20031;-69
2024/01/31 02:39:21;;;;;;;24.35;14.40;;;;;;;;;;5104089;28;20034;-69
2024/01/31 02:41:46;;;;;;;25.33;13.77;;;;;;;;;;5106906;28;20035;-69
2024/01/31 02:44:11;;;;;;;25.80;14.00;;;;;;;;;;5111725;28;20024;-69
2024/01/31 02:46:39;;;;;;;25.35;14.50;;;;;;;;;;5110490;28;20322;-69
2024/01/31 02:49:07;;;;;;;26.75;15.35;;;;;;;;;;5111380;28;20024;-68
2024/01/31 02:51:33;;;;;;;27.05;15.38;;;;;;;;;;5107227;28;20039;-68
2024/01/31 02:53:59;;;;;;;32.92;14.45;;;;;;;;;;5093218;28;20386;-68
2024/01/31 02:56:24;;;;;;;24.17;14.50;;;;;;;;;;5092659;28;20103;-68
2024/01/31 02:58:49;;;;;;;22.73;13.60;;;;;;;;;;5102399;28;20023;-68
2024/01/31 03:01:14;;;;;;;29.90;14.83;;;;;;;;;;5111489;28;20254;-68
2024/01/31 03:03:40;;;;;;;25.85;13.93;;;;;;;;;;5111600;28;20408;-68
2024/01/31 03:06:05;;;;;;;25.08;13.13;;;;;;;;;;5106161;28;20055;-69
2024/01/31 03:08:30;;;;;;;27.25;13.45;;;;;;;;;;5110245;28;20047;-69
2024/01/31 03:10:55;;;;;;;23.50;14.53;;;;;;;;;;5095746;28;20046;-69
2024/01/31 03:13:21;;;;;;;27.10;14.57;;;;;;;;;;5097899;28;20631;-69
2024/01/31 03:15:46;;;;;;;23.13;14.23;;;;;;;;;;5111340;28;20047;-69
2024/01/31 03:18:11;;;;;;;26.63;15.68;;;;;;;;;;5108705;28;20027;-69
2024/01/31 03:20:37;;;;;;;27.00;15.50;;;;;;;;;;5110045;28;20019;-69
2024/01/31 03:23:02;;;;;;;26.70;14.98;;;;;;;;;;5110441;28;20405;-69
2024/01/31 03:25:28;;;;;;;27.17;13.45;;;;;;;;;;5110023;28;20023;-70
2024/01/31 03:27:53;;;;;;;27.92;14.65;;;;;;;;;;5109627;28;20035;-69
2024/01/31 03:30:18;;;;;;;26.73;15.40;;;;;;;;;;5090089;28;20030;-69
2024/01/31 03:32:43;;;;;;;28.20;14.48;;;;;;;;;;5110580;28;20035;-70
2024/01/31 03:35:09;;;;;;;24.58;13.85;;;;;;;;;;5110051;28;20077;-70
2024/01/31 03:37:34;;;;;;;30.00;14.77;;;;;;;;;;5110955;28;20035;-70
2024/01/31 03:39:59;;;;;;;26.50;13.90;;;;;;;;;;5097748;28;20020;-69
2024/01/31 03:42:24;;;;;;;27.35;14.55;;;;;;;;;;5104627;28;20266;-69
2024/01/31 03:44:50;;;;;;;25.10;14.30;;;;;;;;;;5092119;28;20023;-69
2024/01/31 03:47:15;;;;;;;30.48;14.73;;;;;;;;;;5091328;28;20024;-69
2024/01/31 03:49:41;;;;;;;26.67;15.48;;;;;;;;;;5092245;28;20024;-69
2024/01/31 03:52:06;;;;;;;26.60;14.05;;;;;;;;;;5092848;28;20462;-69
2024/01/31 03:54:31;;;;;;;28.30;14.67;;;;;;;;;;5092162;28;20020;-69
2024/01/31 03:56:56;;;;;;;27.80;15.15;;;;;;;;;;5093106;28;20871;-69
2024/01/31 03:59:22;;;;;;;25.13;14.00;;;;;;;;;;5106306;28;20024;-69
2024/01/31 04:01:50;;;;;;;25.88;14.82;;;;;;;;;;5091148;28;20674;-69
2024/01/31 04:04:15;;;;;;;30.08;14.68;;;;;;;;;;5096652;28;20016;-70
2024/01/31 04:06:41;;;;;;;24.80;13.27;;;;;;;;;;5093714;28;20023;-69
2024/01/31 04:09:06;;;;;;;26.13;13.63;;;;;;;;;;5094130;28;20016;-70
2024/01/31 04:11:34;;;;;;;24.33;14.85;;;;;;;;;;5099631;28;20368;-69
2024/01/31 04:13:59;;;;;;;30.15;15.35;;;;;;;;;;5076365;28;20046;-69
2024/01/31 04:16:24;;;;;;;24.95;14.43;;;;;;;;;;5089378;28;20025;-70
2024/01/31 04:18:50;;;;;;;27.43;12.37;;;;;;;;;;5091090;28;20089;-70
2024/01/31 04:21:19;;;;;;;21.88;11.10;;;;;;;;;;5094970;28;20635;-69
2024/01/31 04:23:44;;;;;;;18.08;9.68;;;;;;;;;;5109204;28;20028;-70
2024/01/31 04:26:09;;;;;;;21.07;10.63;;;;;;;;;;5095772;28;20024;-70
2024/01/31 04:28:34;;;;;;;18.07;9.67;;;;;;;;;;5082978;28;20339;-69
2024/01/31 04:31:00;;;;;;;22.67;10.43;;;;;;;;;;5102074;28;20642;-69
2024/01/31 04:33:25;;;;;;;21.50;11.02;;;;;;;;;;5108794;28;20110;-70
2024/01/31 04:35:51;;;;;;;25.42;11.00;;;;;;;;;;5109284;28;20027;-69
2024/01/31 04:38:16;;;;;;;23.15;11.10;;;;;;;;;;5112884;28;20023;-69
2024/01/31 04:40:41;;;;;;;19.83;10.50;;;;;;;;;;5103279;28;20473;-70
2024/01/31 04:43:07;;;;;;;25.20;12.70;;;;;;;;;;5109472;28;20470;-70
2024/01/31 04:45:32;;;;;;;19.83;9.65;;;;;;;;;;5102514;28;20293;-69
2024/01/31 04:47:57;;;;;;;18.47;10.17;;;;;;;;;;5112135;28;20470;-70
2024/01/31 04:50:22;;;;;;;17.70;10.07;;;;;;;;;;5113719;28;20616;-70
2024/01/31 04:52:48;;;;;;;22.48;10.18;;;;;;;;;;5111840;28;20459;-69
2024/01/31 04:55:14;;;;;;;26.27;10.40;;;;;;;;;;5113134;28;20081;-69
2024/01/31 04:57:40;;;;;;;21.45;10.25;;;;;;;;;;5113044;28;20269;-69
2024/01/31 05:00:06;;;;;;;18.40;9.82;;;;;;;;;;5107995;28;20019;-68
2024/01/31 05:02:32;;;;;;;22.33;9.00;;;;;;;;;;5098922;28;20055;-70
2024/01/31 05:04:57;;;;;;;21.40;9.80;;;;;;;;;;5095118;28;20075;-69
2024/01/31 05:07:22;;;;;;;17.80;8.00;;;;;;;;;;5096758;28;20438;-69
2024/01/31 05:09:48;;;;;;;17.55;8.95;;;;;;;;;;5095295;28;20808;-69
2024/01/31 05:12:14;;;;;;;17.87;9.80;;;;;;;;;;5096263;28;20115;-69
2024/01/31 05:14:39;;;;;;;18.02;9.13;;;;;;;;;;5094153;28;20274;-69
2024/01/31 05:17:04;;;;;;;16.85;9.38;;;;;;;;;;5094568;28;20046;-69
2024/01/31 05:19:29;;;;;;;19.95;9.43;;;;;;;;;;5101916;28;20020;-69
2024/01/31 05:21:55;;;;;;;20.58;8.93;;;;;;;;;;5094053;28;20034;-69
2024/01/31 05:24:20;;;;;;;17.43;9.47;;;;;;;;;;5093929;28;20543;-69
2024/01/31 05:26:46;;;;;;;18.45;10.00;;;;;;;;;;5101144;28;20672;-69
2024/01/31 05:29:12;;;;;;;18.40;9.30;;;;;;;;;;5076175;28;20044;-69
2024/01/31 05:31:37;;;;;;;17.30;9.07;;;;;;;;;;5094183;28;20028;-69
2024/01/31 05:34:02;;;;;;;16.75;8.45;;;;;;;;;;5093468;28;20079;-69
2024/01/31 05:36:27;;;;;;;19.02;9.52;;;;;;;;;;5088104;28;20027;-69
2024/01/31 05:38:53;;;;;;;20.17;8.93;;;;;;;;;;5099508;28;20027;-69
2024/01/31 05:41:18;;;;;;;17.25;9.50;;;;;;;;;;5104638;28;20024;-69
2024/01/31 05:43:44;;;;;;;25.43;10.43;;;;;;;;;;5105649;28;20527;-69
2024/01/31 05:46:09;;;;;;;27.10;10.65;;;;;;;;;;5104384;28;20266;-69
2024/01/31 05:48:35;;;;;;;19.92;10.18;;;;;;;;;;5107224;28;20015;-69
2024/01/31 05:51:00;;;;;;;23.20;13.20;;;;;;;;;;5099525;28;20028;-69
2024/01/31 05:53:25;;;;;;;22.93;11.00;;;;;;;;;;5106920;28;20031;-69
2024/01/31 05:55:50;;;;;;;18.13;10.90;;;;;;;;;;5112675;28;20281;-69
2024/01/31 05:58:17;;;;;;;20.50;9.97;;;;;;;;;;5108249;28;20288;-69
2024/01/31 06:00:44;;;;;;;22.98;9.68;;;;;;;;;;5092780;28;20313;-69
2024/01/31 06:03:09;;;;;;;23.50;11.95;;;;;;;;;;5097719;28;20016;-69
2024/01/31 06:05:35;;;;;;;26.90;13.05;;;;;;;;;;5101257;28;20068;-70
2024/01/31 06:08:00;;;;;;;22.35;11.52;;;;;;;;;;5109780;28;20050;-69
2024/01/31 06:10:26;;;;;;;28.73;14.38;;;;;;;;;;5113091;28;20110;-69
2024/01/31 06:12:51;;;;;;;26.60;12.85;;;;;;;;;;5110067;28;20434;-69
2024/01/31 06:15:16;;;;;;;27.33;14.40;;;;;;;;;;5109939;28;20102;-69
2024/01/31 06:17:41;;;;;;;29.30;13.55;;;;;;;;;;5096140;28;20302;-69
2024/01/31 06:20:07;;;;;;;27.20;14.43;;;;;;;;;;5111329;28;20058;-70
2024/01/31 06:22:33;;;;;;;28.75;13.85;;;;;;;;;;5105021;28;20262;-69
2024/01/31 06:24:58;;;;;;;25.85;13.75;;;;;;;;;;5103121;28;20024;-69
2024/01/31 06:27:23;;;;;;;25.48;13.73;;;;;;;;;;5098637;28;20038;-69
2024/01/31 06:29:48;;;;;;;24.93;13.33;;;;;;;;;;5107109;28;20136;-69
2024/01/31 06:32:21;;;;;;;30.33;13.50;;;;;;;;;;5099449;28;20364;-69
2024/01/31 06:34:46;;;;;;;29.67;13.40;;;;;;;;;;5094586;28;20282;-70
2024/01/31 06:37:12;;;;;;;29.75;14.27;;;;;;;;;;5097987;28;20028;-69
2024/01/31 06:39:37;;;;;;;24.63;13.20;;;;;;;;;;5103024;28;20020;-69
2024/01/31 06:42:02;;;;;;;28.95;13.68;;;;;;;;;;5105639;28;20031;-69
2024/01/31 06:44:27;;;;;;;32.08;14.52;;;;;;;;;;5111799;28;20049;-69
2024/01/31 06:46:53;;;;;;;30.85;13.93;;;;;;;;;;5109266;28;20489;-69
2024/01/31 06:49:18;;;;;;;33.25;15.77;;;;;;;;;;5108717;28;20027;-69
2024/01/31 06:51:44;;;;;;;32.45;15.40;;;;;;;;;;5110328;28;20470;-69
2024/01/31 06:54:09;;;;;;;30.57;13.47;;;;;;;;;;5108538;28;20493;-69
2024/01/31 06:56:35;;;;;;;27.30;14.15;;;;;;;;;;5109628;28;20767;-69
2024/01/31 06:59:00;;;;;;;30.73;14.88;;;;;;;;;;5104196;28;20032;-69
2024/01/31 07:01:26;;;;;;;26.38;14.25;;;;;;;;;;5099326;28;20036;-69
2024/01/31 07:03:51;;;;;;;27.42;13.70;;;;;;;;;;5098845;28;20202;-69
2024/01/31 07:06:17;;;;;;;24.00;14.52;;;;;;;;;;5104441;28;20520;-70
2024/01/31 07:08:42;;;;;;;28.88;14.57;;;;;;;;;;5106031;28;20052;-69
2024/01/31 07:11:10;;;;;;;39.17;17.15;;;;;;;;;;5110471;28;20051;-68
2024/01/31 07:13:36;;;;;;;31.25;15.15;;;;;;;;;;5107068;28;20545;-69
2024/01/31 07:16:08;;;;;;;28.20;15.55;;;;;;;;;;5106908;28;20059;-68
2024/01/31 07:18:33;;;;;;;29.80;15.57;;;;;;;;;;5095167;28;20055;-71
2024/01/31 07:20:59;;;;;;;31.77;16.95;;;;;;;;;;5073929;28;20904;-68
2024/01/31 07:23:24;;;;;;;32.60;17.88;;;;;;;;;;5067279;28;20145;-68
2024/01/31 07:25:49;;;;;;;28.90;15.15;;;;;;;;;;5062639;28;20060;-68
2024/01/31 07:28:15;;;;;;;27.80;15.23;;;;;;;;;;5059574;28;20533;-68
2024/01/31 07:30:41;;;;;;;37.13;17.20;;;;;;;;;;5089924;28;21206;-69
2024/01/31 07:33:06;;;;;;;28.90;15.55;;;;;;;;;;5090918;28;20020;-69
2024/01/31 07:35:31;;;;;;;34.25;17.48;;;;;;;;;;5083758;28;20024;-68
2024/01/31 07:37:56;;;;;;;31.83;16.47;;;;;;;;;;5084768;28;20023;-68
2024/01/31 07:40:22;;;;;;;29.25;16.77;;;;;;;;;;5089115;28;20277;-69
2024/01/31 07:42:47;;;;;;;32.47;16.02;;;;;;;;;;5087256;28;20474;-68
2024/01/31 07:45:12;;;;;;;32.40;17.10;;;;;;;;;;5082276;28;20728;-68
2024/01/31 07:47:38;;;;;;;31.97;18.70;;;;;;;;;;5081728;28;20706;-69
2024/01/31 07:50:05;;;;;;;33.60;17.23;;;;;;;;;;5075953;28;21073;-68
2024/01/31 07:52:30;;;;;;;40.13;18.58;;;;;;;;;;5083787;28;20115;-68
2024/01/31 07:54:55;;;;;;;40.53;18.10;;;;;;;;;;5079240;28;20034;-68
2024/01/31 07:57:20;;;;;;;33.40;18.58;;;;;;;;;;5086722;28;20157;-68
2024/01/31 07:59:45;;;;;;;35.23;18.23;;;;;;;;;;5083138;28;20015;-68
2024/01/31 08:02:11;;;;;;;35.47;18.52;;;;;;;;;;5083229;28;20303;-68
2024/01/31 08:04:36;;;;;;;37.57;19.67;;;;;;;;;;5086720;28;20026;-68
2024/01/31 08:07:01;;;;;;;37.47;19.38;;;;;;;;;;5090114;28;20326;-69
2024/01/31 08:09:26;;;;;;;40.07;20.83;;;;;;;;;;5090493;28;20923;-68
2024/01/31 08:11:52;;;;;;;34.23;19.83;;;;;;;;;;5081952;28;21527;-68
2024/01/31 08:14:17;;;;;;;37.35;18.58;;;;;;;;;;5066943;28;21154;-68
2024/01/31 08:16:42;;;;;;;33.03;19.55;;;;;;;;;;5057754;28;20762;-69
2024/01/31 08:19:08;;;;;;;31.35;19.27;;;;;;;;;;5066638;28;20028;-69
2024/01/31 08:21:33;;;;;;;37.30;20.47;;;;;;;;;;5056284;28;20105;-68
2024/01/31 08:23:59;;;;;;;40.75;23.25;;;;;;;;;;5068443;28;21148;-68
2024/01/31 08:26:24;;;;;;;34.88;21.58;;;;;;;;;;5060755;28;20133;-68
2024/01/31 08:28:49;;;;;;;35.00;18.90;;;;;;;;;;5068177;28;20951;-69
2024/01/31 08:31:14;;;;;;;30.63;19.00;;;;;;;;;;5064690;28;20124;-69
2024/01/31 08:33:40;;;;;;;28.73;18.40;;;;;;;;;;5059825;28;20053;-69
2024/01/31 08:36:05;;;;;;;31.27;17.63;;;;;;;;;;5059043;28;20865;-69
2024/01/31 08:38:30;;;;;;;32.30;17.92;;;;;;;;;;5055984;28;21039;-68
2024/01/31 08:40:55;;;;;;;33.57;17.53;;;;;;;;;;5069416;28;20028;-68
2024/01/31 08:43:21;;;;;;;29.60;16.87;;;;;;;;;;5066663;28;20284;-68
2024/01/31 08:45:46;;;;;;;31.00;16.77;;;;;;;;;;5068513;28;20269;-67
2024/01/31 08:48:11;;;;;;;26.00;15.68;;;;;;;;;;5060207;28;20028;-69
2024/01/31 08:50:36;;;;;;;24.48;15.45;;;;;;;;;;5057085;28;20042;-69
2024/01/31 08:53:02;;;;;;;25.88;15.55;;;;;;;;;;5058217;28;20138;-69
2024/01/31 08:55:27;;;;;;;26.15;14.63;;;;;;;;;;5063156;28;20837;-69
2024/01/31 08:57:52;;;;;;;26.30;13.45;;;;;;;;;;5056563;28;20119;-69
2024/01/31 09:00:17;;;;;;;23.10;13.13;;;;;;;;;;5050597;28;20588;-69
2024/01/31 09:02:43;;;;;;;23.23;13.93;;;;;;;;;;5060700;28;20127;-68
2024/01/31 09:05:10;;;;;;;23.23;13.45;;;;;;;;;;5061901;28;20039;-68
2024/01/31 09:07:35;;;;;;;22.20;12.50;;;;;;;;;;5054209;28;20028;-68
2024/01/31 09:10:01;;;;;;;22.55;12.73;;;;;;;;;;5054945;28;20077;-69
2024/01/31 09:12:26;;;;;;;27.90;12.80;;;;;;;;;;5066531;28;20792;-69
2024/01/31 09:14:51;;;;;;;17.02;11.20;;;;;;;;;;5061994;28;21185;-69
2024/01/31 09:17:17;;;;;;;18.27;11.30;;;;;;;;;;5060912;28;20020;-69
2024/01/31 09:19:42;;;;;;;17.83;10.85;;;;;;;;;;5056450;28;20794;-68
2024/01/31 09:22:07;;;;;;;18.73;10.77;;;;;;;;;;5059096;28;20048;-68
2024/01/31 09:24:32;;;;;;;16.15;10.60;;;;;;;;;;5069172;28;20043;-68
2024/01/31 09:26:58;;;;;;;15.73;10.57;;;;;;;;;;5063162;28;20024;-69
2024/01/31 09:29:25;;;;;;;16.65;10.27;;;;;;;;;;5064253;28;20012;-68
2024/01/31 09:31:50;;;;;;;15.73;9.68;;;;;;;;;;5072685;28;20060;-66
2024/01/31 09:34:15;;;;;;;17.83;10.23;;;;;;;;;;5106061;28;20110;-66
2024/01/31 09:36:41;;;;;;;15.07;9.00;;;;;;;;;;5071337;28;20040;-66
2024/01/31 09:39:06;;;;;;;16.50;9.38;;;;;;;;;;5064323;28;20054;-66
2024/01/31 09:41:31;;;;;;;13.75;8.95;;;;;;;;;;5060267;28;20105;-66
2024/01/31 09:43:56;;;;;;;14.83;8.47;;;;;;;;;;5061955;28;20130;-65
2024/01/31 09:46:22;;;;;;;12.05;7.50;;;;;;;;;;5066115;28;20293;-65
2024/01/31 09:48:47;;;;;;;12.40;7.22;;;;;;;;;;5057056;28;20027;-65
2024/01/31 09:51:13;;;;;;;13.73;7.15;;;;;;;;;;5062717;28;20023;-65
2024/01/31 09:53:38;;;;;;;10.50;5.97;;;;;;;;;;5055653;28;20047;-64
2024/01/31 09:56:05;;;;;;;9.48;6.47;;;;;;;;;;5067308;28;20054;-65
2024/01/31 09:58:30;;;;;;;9.50;6.00;;;;;;;;;;5065845;28;20019;-66
2024/01/31 10:00:57;;;;;;;10.07;6.30;;;;;;;;;;5066651;28;20207;-65
2024/01/31 10:03:23;;;;;;;10.70;6.22;;;;;;;;;;5066343;28;20058;-65
2024/01/31 10:05:48;;;;;;;9.30;6.22;;;;;;;;;;5067009;28;20028;-66
2024/01/31 10:08:13;;;;;;;9.57;6.17;;;;;;;;;;5058937;28;20035;-66
2024/01/31 10:10:38;;;;;;;9.67;5.77;;;;;;;;;;5055233;28;20389;-65
2024/01/31 10:13:07;;;;;;;10.23;6.65;;;;;;;;;;5067375;28;20331;-65
2024/01/31 10:15:34;;;;;;;11.73;6.78;;;;;;;;;;5068283;28;20067;-65
2024/01/31 10:17:59;;;;;;;10.67;6.27;;;;;;;;;;5065047;28;20083;-66
2024/01/31 10:20:24;;;;;;;12.38;6.72;;;;;;;;;;5057330;28;20265;-65
2024/01/31 10:22:50;;;;;;;10.18;6.57;;;;;;;;;;5063626;28;20026;-65
2024/01/31 10:25:17;;;;;;;9.65;6.22;;;;;;;;;;5053198;28;20085;-65
2024/01/31 10:27:43;;;;;;;12.35;6.57;;;;;;;;;;5064104;28;20023;-65
2024/01/31 10:30:09;;;;;;;10.32;6.32;;;;;;;;;;5054485;28;20948;-65
2024/01/31 10:32:35;;;;;;;9.68;6.53;;;;;;;;;;5064937;28;20031;-65
2024/01/31 10:35:01;;;;;;;9.77;6.63;;;;;;;;;;5064316;28;20464;-65
2024/01/31 10:37:26;;;;;;;9.43;6.30;;;;;;;;;;5051040;28;20865;-65
2024/01/31 10:39:52;;;;;;;10.70;7.25;;;;;;;;;;5063101;28;20089;-65
2024/01/31 10:42:18;;;;;;;14.70;6.43;;;;;;;;;;5057028;28;20139;-65
2024/01/31 10:44:43;;;;;;;9.23;6.22;;;;;;;;;;5055576;28;20026;-66
2024/01/31 10:47:09;;;;;;;9.60;5.78;;;;;;;;;;5053755;28;20093;-65
2024/01/31 10:49:34;;;;;;;11.33;6.03;;;;;;;;;;5060629;28;20533;-65
2024/01/31 10:52:01;;;;;;;10.40;5.85;;;;;;;;;;5061470;28;21285;-66
2024/01/31 10:54:28;;;;;;;11.20;5.53;;;;;;;;;;5062685;28;20023;-66
2024/01/31 10:56:54;;;;;;;9.93;5.47;;;;;;;;;;5057568;28;20029;-65
2024/01/31 10:59:19;;;;;;;9.10;5.30;;;;;;;;;;5051958;28;20883;-65
2024/01/31 11:01:52;;;;;;;6.87;3.90;;;;;;;;;;5052758;28;20085;-65
2024/01/31 11:04:18;;;;;;;6.63;4.25;;;;;;;;;;5052781;28;20303;-65
2024/01/31 11:06:43;;;;;;;8.45;4.70;;;;;;;;;;5064811;28;20143;-67
2024/01/31 11:09:20;;;;;;;5.85;3.42;;;;;;;;;;5057041;28;20100;-65
2024/01/31 11:11:45;;;;;;;6.93;3.65;;;;;;;;;;5065463;28;20872;-66
2024/01/31 11:14:14;;;;;;;5.90;2.93;;;;;;;;;;5065826;28;20030;-65
2024/01/31 11:16:40;;;;;;;6.05;3.28;;;;;;;;;;5066294;28;20380;-65
2024/01/31 11:19:06;;;;;;;5.03;2.92;;;;;;;;;;5054709;28;20015;-65
2024/01/31 11:21:41;;;;;;;6.22;2.30;;;;;;;;;;5055157;28;20082;-65
2024/01/31 11:24:06;;;;;;;3.47;2.20;;;;;;;;;;5059675;28;20089;-66
2024/01/31 11:26:35;;;;;;;3.65;2.00;;;;;;;;;;5060902;28;20020;-65
2024/01/31 11:29:01;;;;;;;4.32;2.03;;;;;;;;;;5060079;28;20825;-64
2024/01/31 11:31:27;;;;;;;4.28;1.92;;;;;;;;;;5067341;28;20026;-67
2024/01/31 11:33:55;;;;;;;3.53;1.90;;;;;;;;;;5070240;28;20039;-65
2024/01/31 11:36:20;;;;;;;3.85;2.22;;;;;;;;;;5060487;28;20028;-65
2024/01/31 11:38:46;;;;;;;3.65;2.33;;;;;;;;;;5061418;28;20026;-67
2024/01/31 11:41:11;;;;;;;4.15;1.95;;;;;;;;;;5061503;28;20031;-65
2024/01/31 11:43:36;;;;;;;6.22;2.45;;;;;;;;;;5067573;28;20022;-66
2024/01/31 11:46:01;;;;;;;4.05;2.30;;;;;;;;;;5059293;28;20062;-65
2024/01/31 11:48:27;;;;;;;5.40;2.40;;;;;;;;;;5063296;28;20950;-66
2024/01/31 11:50:54;;;;;;;4.20;2.38;;;;;;;;;;5066999;28;20825;-67
2024/01/31 11:53:19;;;;;;;4.30;2.70;;;;;;;;;;5061145;28;20020;-67
2024/01/31 11:55:45;;;;;;;4.43;2.42;;;;;;;;;;5066029;28;20080;-65
2024/01/31 11:58:11;;;;;;;4.50;2.72;;;;;;;;;;5060210;28;20845;-66
2024/01/31 12:00:36;;;;;;;5.55;2.65;;;;;;;;;;5057188;28;20039;-65
2024/01/31 12:03:02;;;;;;;3.90;2.22;;;;;;;;;;5067511;28;20436;-67
2024/01/31 12:05:27;;;;;;;3.50;2.47;;;;;;;;;;5058094;28;20024;-63
2024/01/31 12:07:56;;;;;;;4.18;2.28;;;;;;;;;;5062736;28;20081;-63
2024/01/31 12:10:23;;;;;;;4.55;2.45;;;;;;;;;;5050253;28;20850;-64
2024/01/31 12:12:48;;;;;;;7.10;2.50;;;;;;;;;;5063307;28;20903;-63
2024/01/31 12:15:13;;;;;;;5.93;3.15;;;;;;;;;;5063641;28;20027;-63
2024/01/31 12:17:39;;;;;;;4.23;2.60;;;;;;;;;;5066974;28;20854;-63
2024/01/31 12:20:05;;;;;;;4.60;2.17;;;;;;;;;;5065482;28;21030;-63
2024/01/31 12:22:33;;;;;;;4.53;2.55;;;;;;;;;;5065180;28;20106;-64
2024/01/31 12:25:02;;;;;;;5.40;2.75;;;;;;;;;;5062139;28;20031;-63
2024/01/31 12:27:27;;;;;;;6.55;2.92;;;;;;;;;;5061365;28;20035;-63
2024/01/31 12:29:53;;;;;;;5.95;3.15;;;;;;;;;;5066927;28;20035;-63
2024/01/31 12:32:18;;;;;;;4.95;2.50;;;;;;;;;;5065258;28;20039;-63
2024/01/31 12:34:43;;;;;;;5.93;2.63;;;;;;;;;;5057544;28;20948;-63
2024/01/31 12:37:08;;;;;;;8.23;3.70;;;;;;;;;;5059979;28;21166;-63
2024/01/31 12:39:35;;;;;;;6.47;3.15;;;;;;;;;;5057947;28;21243;-63
2024/01/31 12:42:01;;;;;;;5.57;3.55;;;;;;;;;;5068360;28;20031;-63
2024/01/31 12:44:27;;;;;;;5.78;3.40;;;;;;;;;;5065895;28;20023;-64
2024/01/31 12:46:52;;;;;;;3.80;2.72;;;;;;;;;;5063518;28;20912;-64
2024/01/31 12:49:17;;;;;;;4.60;3.00;;;;;;;;;;5064821;28;20016;-64
2024/01/31 12:51:43;;;;;;;5.30;2.75;;;;;;;;;;5066036;28;20032;-63
2024/01/31 12:54:08;;;;;;;5.07;3.05;;;;;;;;;;5068104;28;20039;-64
2024/01/31 12:56:33;;;;;;;5.70;2.50;;;;;;;;;;5061202;28;21016;-64
2024/01/31 12:58:58;;;;;;;3.75;2.15;;;;;;;;;;5069572;28;21154;-63
2024/01/31 13:01:24;;;;;;;4.45;2.28;;;;;;;;;;5069225;28;20906;-63
2024/01/31 13:03:49;;;;;;;5.55;2.20;;;;;;;;;;5066344;28;20031;-70
2024/01/31 13:06:14;;;;;;;4.33;2.50;;;;;;;;;;5061067;28;20900;-65
2024/01/31 13:08:39;;;;;;;4.05;2.60;;;;;;;;;;5064941;28;21025;-67
2024/01/31 13:11:08;;;;;;;4.35;2.47;;;;;;;;;;5065396;28;20058;-64
2024/01/31 13:13:37;;;;;;;3.70;1.92;;;;;;;;;;5063705;28;20028;-63
2024/01/31 13:16:02;;;;;;;7.30;4.30;;;;;;;;;;5067649;28;20906;-64
2024/01/31 13:18:27;;;;;;;6.85;2.83;;;;;;;;;;5068819;28;20019;-63
2024/01/31 13:20:52;;;;;;;4.15;2.22;;;;;;;;;;5064280;28;20015;-64
2024/01/31 13:23:18;;;;;;;4.00;2.28;;;;;;;;;;5063006;28;20035;-63
2024/01/31 13:25:43;;;;;;;4.95;2.17;;;;;;;;;;5067187;28;20016;-63
2024/01/31 13:28:08;;;;;;;3.87;2.03;;;;;;;;;;5064960;28;20024;-64
2024/01/31 13:30:34;;;;;;;3.60;1.95;;;;;;;;;;5067561;28;20277;-65
2024/01/31 13:32:59;;;;;;;4.43;2.45;;;;;;;;;;5059311;28;20902;-64
2024/01/31 13:35:24;;;;;;;4.47;2.50;;;;;;;;;;5064402;28;20031;-64
2024/01/31 13:37:49;;;;;;;4.87;1.83;;;;;;;;;;5063429;28;20027;-64
2024/01/31 13:40:14;;;;;;;3.78;1.92;;;;;;;;;;5060629;28;20312;-64
2024/01/31 13:42:40;;;;;;;3.30;1.67;;;;;;;;;;5065390;28;20028;-64
2024/01/31 13:45:05;;;;;;;4.85;1.85;;;;;;;;;;5054981;28;20019;-63
2024/01/31 13:47:31;;;;;;;3.25;1.95;;;;;;;;;;5056194;28;20024;-63
2024/01/31 13:49:56;;;;;;;5.30;1.92;;;;;;;;;;5055353;28;20021;-63
2024/01/31 13:52:21;;;;;;;4.33;2.50;;;;;;;;;;5063320;28;20032;-63
2024/01/31 13:54:46;;;;;;;4.70;1.92;;;;;;;;;;5065707;28;20286;-63
2024/01/31 13:57:11;;;;;;;6.23;2.23;;;;;;;;;;5066020;28;20035;-62
2024/01/31 13:59:37;;;;;;;4.33;1.63;;;;;;;;;;5055981;28;20257;-62
2024/01/31 14:02:03;;;;;;;6.43;2.07;;;;;;;;;;5048526;28;20289;-63
2024/01/31 14:04:28;;;;;;;3.67;1.88;;;;;;;;;;5066585;28;20306;-63
2024/01/31 14:06:54;;;;;;;4.88;2.00;;;;;;;;;;5068012;28;20034;-63
2024/01/31 14:09:21;;;;;;;5.05;2.10;;;;;;;;;;5061231;28;20027;-63
2024/01/31 14:11:46;;;;;;;5.07;1.85;;;;;;;;;;5053563;28;20278;-63
2024/01/31 14:14:11;;;;;;;7.33;1.67;;;;;;;;;;5058230;28;20063;-62
2024/01/31 14:16:36;;;;;;;3.33;1.33;;;;;;;;;;5057871;28;21181;-63